sensor_id;sensor_type;location;lat;lon;timestamp;P1;durP1;ratioP1;P2;durP2;ratioP2
29814;SDS011;16708;50.426;7.664;2023-04-28T00:04:38;5.70;;;2.20;;
29814;SDS011;16708;50.426;7.664;2023-04-28T00:09:32;5.40;;;2.20;;
29814;SDS011;16708;50.426;7.664;2023-04-28T00:14:26;7.40;;;2.60;;
29814;SDS011;16708;50.426;7.664;2023-04-28T00:19:19;6.70;;;2.40;;
29814;SDS011;16708;50.426;7.664;2023-04-28T00:24:13;8.60;;;2.30;;
29814;SDS011;16708;50.426;7.664;2023-04-28T00:29:07;6.00;;;2.20;;
29814;SDS011;16708;50.426;7.664;2023-04-28T00:34:01;7.60;;;2.60;;
29814;SDS011;16708;50.426;7.664;2023-04-28T00:38:56;8.50;;;2.90;;
29814;SDS011;16708;50.426;7.664;2023-04-28T00:43:50;9.20;;;2.60;;
29814;SDS011;16708;50.426;7.664;2023-04-28T00:48:44;7.20;;;2.70;;
29814;SDS011;16708;50.426;7.664;2023-04-28T00:53:37;6.60;;;2.80;;
29814;SDS011;16708;50.426;7.664;2023-04-28T00:58:28;8.40;;;3.00;;
29814;SDS011;16708;50.426;7.664;2023-04-28T01:03:22;6.50;;;2.90;;
29814;SDS011;16708;50.426;7.664;2023-04-28T01:08:17;6.40;;;2.90;;
29814;SDS011;16708;50.426;7.664;2023-04-28T01:13:11;7.40;;;3.10;;
29814;SDS011;16708;50.426;7.664;2023-04-28T01:18:05;7.00;;;3.20;;
29814;SDS011;16708;50.426;7.664;2023-04-28T01:22:58;5.70;;;2.70;;
29814;SDS011;16708;50.426;7.664;2023-04-28T01:27:52;10.00;;;3.10;;
29814;SDS011;16708;50.426;7.664;2023-04-28T01:32:45;10.00;;;3.40;;
29814;SDS011;16708;50.426;7.664;2023-04-28T01:37:39;7.60;;;3.00;;
29814;SDS011;16708;50.426;7.664;2023-04-28T01:42:33;6.90;;;2.90;;
29814;SDS011;16708;50.426;7.664;2023-04-28T01:47:27;8.30;;;3.20;;
29814;SDS011;16708;50.426;7.664;2023-04-28T01:52:21;4.20;;;2.50;;
29814;SDS011;16708;50.426;7.664;2023-04-28T01:57:15;6.80;;;2.70;;
29814;SDS011;16708;50.426;7.664;2023-04-28T02:02:07;5.60;;;2.50;;
29814;SDS011;16708;50.426;7.664;2023-04-28T02:07:01;4.10;;;2.20;;
29814;SDS011;16708;50.426;7.664;2023-04-28T02:11:55;7.30;;;2.50;;
29814;SDS011;16708;50.426;7.664;2023-04-28T02:16:49;5.70;;;2.50;;
29814;SDS011;16708;50.426;7.664;2023-04-28T02:21:43;6.20;;;2.70;;
29814;SDS011;16708;50.426;7.664;2023-04-28T02:26:38;8.10;;;2.70;;
29814;SDS011;16708;50.426;7.664;2023-04-28T02:31:30;4.50;;;2.30;;
29814;SDS011;16708;50.426;7.664;2023-04-28T02:36:25;5.00;;;2.50;;
29814;SDS011;16708;50.426;7.664;2023-04-28T02:41:19;5.80;;;2.60;;
29814;SDS011;16708;50.426;7.664;2023-04-28T02:46:13;5.60;;;2.90;;
29814;SDS011;16708;50.426;7.664;2023-04-28T02:51:07;8.60;;;3.00;;
29814;SDS011;16708;50.426;7.664;2023-04-28T02:56:01;6.50;;;3.40;;
29814;SDS011;16708;50.426;7.664;2023-04-28T03:00:55;7.00;;;3.90;;
29814;SDS011;16708;50.426;7.664;2023-04-28T03:05:49;7.50;;;3.60;;
29814;SDS011;16708;50.426;7.664;2023-04-28T03:10:42;8.10;;;3.90;;
29814;SDS011;16708;50.426;7.664;2023-04-28T03:15:37;12.40;;;4.10;;
29814;SDS011;16708;50.426;7.664;2023-04-28T03:20:30;11.00;;;5.20;;
29814;SDS011;16708;50.426;7.664;2023-04-28T03:25:23;9.90;;;4.50;;
29814;SDS011;16708;50.426;7.664;2023-04-28T03:30:18;9.90;;;5.40;;
29814;SDS011;16708;50.426;7.664;2023-04-28T03:35:12;12.00;;;5.40;;
29814;SDS011;16708;50.426;7.664;2023-04-28T03:40:06;10.20;;;5.40;;
29814;SDS011;16708;50.426;7.664;2023-04-28T03:44:59;11.50;;;5.10;;
29814;SDS011;16708;50.426;7.664;2023-04-28T03:49:52;11.80;;;4.90;;
29814;SDS011;16708;50.426;7.664;2023-04-28T03:54:46;11.50;;;5.40;;
29814;SDS011;16708;50.426;7.664;2023-04-28T03:59:40;11.10;;;5.70;;
29814;SDS011;16708;50.426;7.664;2023-04-28T04:04:33;13.50;;;6.10;;
29814;SDS011;16708;50.426;7.664;2023-04-28T04:09:28;10.00;;;5.40;;
29814;SDS011;16708;50.426;7.664;2023-04-28T04:14:22;10.20;;;5.60;;
29814;SDS011;16708;50.426;7.664;2023-04-28T04:19:16;9.80;;;5.40;;
29814;SDS011;16708;50.426;7.664;2023-04-28T04:24:10;8.90;;;5.50;;
29814;SDS011;16708;50.426;7.664;2023-04-28T04:29:04;11.10;;;5.70;;
29814;SDS011;16708;50.426;7.664;2023-04-28T04:33:58;10.40;;;5.80;;
29814;SDS011;16708;50.426;7.664;2023-04-28T04:38:52;12.30;;;5.80;;
29814;SDS011;16708;50.426;7.664;2023-04-28T04:43:44;16.10;;;8.10;;
29814;SDS011;16708;50.426;7.664;2023-04-28T04:48:39;13.10;;;7.30;;
29814;SDS011;16708;50.426;7.664;2023-04-28T04:53:33;12.20;;;5.90;;
29814;SDS011;16708;50.426;7.664;2023-04-28T04:58:27;12.90;;;7.70;;
29814;SDS011;16708;50.426;7.664;2023-04-28T05:03:21;11.30;;;6.90;;
29814;SDS011;16708;50.426;7.664;2023-04-28T05:08:15;16.10;;;7.70;;
29814;SDS011;16708;50.426;7.664;2023-04-28T05:13:07;14.30;;;7.40;;
29814;SDS011;16708;50.426;7.664;2023-04-28T05:18:01;11.80;;;7.30;;
29814;SDS011;16708;50.426;7.664;2023-04-28T05:22:55;14.30;;;7.10;;
29814;SDS011;16708;50.426;7.664;2023-04-28T05:27:49;11.00;;;6.00;;
29814;SDS011;16708;50.426;7.664;2023-04-28T05:32:43;14.90;;;7.50;;
29814;SDS011;16708;50.426;7.664;2023-04-28T05:37:38;12.20;;;6.90;;
29814;SDS011;16708;50.426;7.664;2023-04-28T05:42:30;12.20;;;6.60;;
29814;SDS011;16708;50.426;7.664;2023-04-28T05:47:24;12.30;;;6.40;;
29814;SDS011;16708;50.426;7.664;2023-04-28T05:52:18;13.50;;;7.10;;
29814;SDS011;16708;50.426;7.664;2023-04-28T05:57:12;12.60;;;6.50;;
29814;SDS011;16708;50.426;7.664;2023-04-28T06:02:06;14.60;;;7.10;;
29814;SDS011;16708;50.426;7.664;2023-04-28T06:07:00;13.80;;;7.30;;
29814;SDS011;16708;50.426;7.664;2023-04-28T06:11:54;11.80;;;7.30;;
29814;SDS011;16708;50.426;7.664;2023-04-28T06:16:48;15.90;;;7.80;;
29814;SDS011;16708;50.426;7.664;2023-04-28T06:21:40;13.50;;;8.40;;
29814;SDS011;16708;50.426;7.664;2023-04-28T06:26:33;22.90;;;10.90;;
29814;SDS011;16708;50.426;7.664;2023-04-28T06:31:27;13.30;;;7.20;;
29814;SDS011;16708;50.426;7.664;2023-04-28T06:36:21;11.80;;;6.40;;
29814;SDS011;16708;50.426;7.664;2023-04-28T06:41:16;14.20;;;6.50;;
29814;SDS011;16708;50.426;7.664;2023-04-28T06:46:10;11.50;;;6.50;;
29814;SDS011;16708;50.426;7.664;2023-04-28T06:51:04;12.70;;;6.70;;
29814;SDS011;16708;50.426;7.664;2023-04-28T06:55:58;10.50;;;5.90;;
29814;SDS011;16708;50.426;7.664;2023-04-28T07:00:52;15.70;;;7.70;;
29814;SDS011;16708;50.426;7.664;2023-04-28T07:05:45;14.20;;;6.60;;
29814;SDS011;16708;50.426;7.664;2023-04-28T07:10:39;23.10;;;10.60;;
29814;SDS011;16708;50.426;7.664;2023-04-28T07:15:33;14.50;;;7.60;;
29814;SDS011;16708;50.426;7.664;2023-04-28T07:20:27;13.20;;;7.60;;
29814;SDS011;16708;50.426;7.664;2023-04-28T07:25:22;12.30;;;6.90;;
29814;SDS011;16708;50.426;7.664;2023-04-28T07:30:19;12.40;;;6.40;;
29814;SDS011;16708;50.426;7.664;2023-04-28T07:35:09;11.40;;;6.20;;
29814;SDS011;16708;50.426;7.664;2023-04-28T07:40:02;9.60;;;5.70;;
29814;SDS011;16708;50.426;7.664;2023-04-28T07:44:57;11.40;;;5.40;;
29814;SDS011;16708;50.426;7.664;2023-04-28T07:49:51;10.40;;;5.90;;
29814;SDS011;16708;50.426;7.664;2023-04-28T07:54:45;10.10;;;6.10;;
29814;SDS011;16708;50.426;7.664;2023-04-28T07:59:39;8.70;;;5.70;;
29814;SDS011;16708;50.426;7.664;2023-04-28T08:04:33;11.40;;;6.10;;
29814;SDS011;16708;50.426;7.664;2023-04-28T08:09:24;8.50;;;5.50;;
29814;SDS011;16708;50.426;7.664;2023-04-28T08:14:19;8.70;;;5.20;;
29814;SDS011;16708;50.426;7.664;2023-04-28T08:19:12;9.20;;;5.50;;
29814;SDS011;16708;50.426;7.664;2023-04-28T08:24:06;9.80;;;5.50;;
29814;SDS011;16708;50.426;7.664;2023-04-28T08:28:59;9.60;;;5.60;;
29814;SDS011;16708;50.426;7.664;2023-04-28T08:33:53;9.10;;;5.50;;
29814;SDS011;16708;50.426;7.664;2023-04-28T08:38:47;9.10;;;5.80;;
29814;SDS011;16708;50.426;7.664;2023-04-28T08:43:40;8.30;;;5.40;;
29814;SDS011;16708;50.426;7.664;2023-04-28T08:48:33;6.70;;;5.30;;
29814;SDS011;16708;50.426;7.664;2023-04-28T08:53:27;7.20;;;4.80;;
29814;SDS011;16708;50.426;7.664;2023-04-28T08:58:22;8.20;;;4.90;;
29814;SDS011;16708;50.426;7.664;2023-04-28T09:13:05;7.70;;;4.90;;
29814;SDS011;16708;50.426;7.664;2023-04-28T09:18:00;5.90;;;3.70;;
29814;SDS011;16708;50.426;7.664;2023-04-28T09:27:49;5.30;;;3.50;;
29814;SDS011;16708;50.426;7.664;2023-04-28T09:32:44;6.00;;;3.00;;
29814;SDS011;16708;50.426;7.664;2023-04-28T09:37:39;5.20;;;2.60;;
29814;SDS011;16708;50.426;7.664;2023-04-28T09:42:32;3.00;;;2.30;;
29814;SDS011;16708;50.426;7.664;2023-04-28T09:47:26;3.40;;;2.60;;
29814;SDS011;16708;50.426;7.664;2023-04-28T09:52:21;3.90;;;2.40;;
29814;SDS011;16708;50.426;7.664;2023-04-28T09:57:15;3.90;;;2.40;;
29814;SDS011;16708;50.426;7.664;2023-04-28T10:02:10;5.60;;;2.40;;
29814;SDS011;16708;50.426;7.664;2023-04-28T10:07:06;3.70;;;2.50;;
29814;SDS011;16708;50.426;7.664;2023-04-28T10:12:00;2.80;;;2.20;;
29814;SDS011;16708;50.426;7.664;2023-04-28T10:16:55;3.30;;;2.20;;
29814;SDS011;16708;50.426;7.664;2023-04-28T10:41:27;3.40;;;2.60;;
29814;SDS011;16708;50.426;7.664;2023-04-28T11:06:03;1.80;;;1.70;;
29814;SDS011;16708;50.426;7.664;2023-04-28T11:15:52;1.70;;;1.60;;
29814;SDS011;16708;50.426;7.664;2023-04-28T11:20:46;2.30;;;1.70;;
29814;SDS011;16708;50.426;7.664;2023-04-28T11:25:39;1.90;;;1.60;;
29814;SDS011;16708;50.426;7.664;2023-04-28T11:30:32;3.20;;;1.60;;
29814;SDS011;16708;50.426;7.664;2023-04-28T11:40:23;1.60;;;1.30;;
29814;SDS011;16708;50.426;7.664;2023-04-28T11:45:18;2.30;;;1.30;;
29814;SDS011;16708;50.426;7.664;2023-04-28T11:50:13;1.20;;;1.10;;
29814;SDS011;16708;50.426;7.664;2023-04-28T12:00:02;1.80;;;1.40;;
29814;SDS011;16708;50.426;7.664;2023-04-28T12:04:55;1.90;;;1.20;;
29814;SDS011;16708;50.426;7.664;2023-04-28T12:14:40;1.70;;;1.50;;
29814;SDS011;16708;50.426;7.664;2023-04-28T12:19:36;3.10;;;1.10;;
29814;SDS011;16708;50.426;7.664;2023-04-28T12:24:31;1.60;;;1.00;;
29814;SDS011;16708;50.426;7.664;2023-04-28T12:29:27;1.20;;;1.00;;
29814;SDS011;16708;50.426;7.664;2023-04-28T12:34:16;1.30;;;1.20;;
29814;SDS011;16708;50.426;7.664;2023-04-28T12:39:10;1.00;;;0.90;;
29814;SDS011;16708;50.426;7.664;2023-04-28T12:44:04;1.30;;;0.90;;
29814;SDS011;16708;50.426;7.664;2023-04-28T12:49:00;1.30;;;1.20;;
29814;SDS011;16708;50.426;7.664;2023-04-28T12:53:54;1.20;;;1.10;;
29814;SDS011;16708;50.426;7.664;2023-04-28T12:58:48;1.80;;;1.00;;
29814;SDS011;16708;50.426;7.664;2023-04-28T13:03:41;2.40;;;1.10;;
29814;SDS011;16708;50.426;7.664;2023-04-28T13:08:34;8.90;;;1.80;;
29814;SDS011;16708;50.426;7.664;2023-04-28T13:13:27;7.30;;;2.30;;
29814;SDS011;16708;50.426;7.664;2023-04-28T13:18:19;4.90;;;1.70;;
29814;SDS011;16708;50.426;7.664;2023-04-28T13:23:13;3.40;;;1.60;;
29814;SDS011;16708;50.426;7.664;2023-04-28T13:28:08;3.90;;;1.60;;
29814;SDS011;16708;50.426;7.664;2023-04-28T13:33:03;2.50;;;1.50;;
29814;SDS011;16708;50.426;7.664;2023-04-28T13:37:58;4.50;;;1.40;;
29814;SDS011;16708;50.426;7.664;2023-04-28T13:42:54;1.80;;;1.30;;
29814;SDS011;16708;50.426;7.664;2023-04-28T13:47:50;2.20;;;1.20;;
29814;SDS011;16708;50.426;7.664;2023-04-28T13:52:44;3.50;;;1.30;;
29814;SDS011;16708;50.426;7.664;2023-04-28T13:57:39;2.00;;;1.30;;
29814;SDS011;16708;50.426;7.664;2023-04-28T14:02:32;1.70;;;1.30;;
29814;SDS011;16708;50.426;7.664;2023-04-28T14:07:25;2.30;;;1.20;;
29814;SDS011;16708;50.426;7.664;2023-04-28T14:12:18;1.00;;;0.80;;
29814;SDS011;16708;50.426;7.664;2023-04-28T14:17:11;2.30;;;0.80;;
29814;SDS011;16708;50.426;7.664;2023-04-28T14:22:05;1.10;;;0.70;;
29814;SDS011;16708;50.426;7.664;2023-04-28T14:26:58;2.50;;;0.80;;
29814;SDS011;16708;50.426;7.664;2023-04-28T14:31:50;1.80;;;0.60;;
29814;SDS011;16708;50.426;7.664;2023-04-28T14:36:44;0.50;;;0.40;;
29814;SDS011;16708;50.426;7.664;2023-04-28T14:41:38;2.20;;;0.70;;
29814;SDS011;16708;50.426;7.664;2023-04-28T14:46:31;0.80;;;0.50;;
29814;SDS011;16708;50.426;7.664;2023-04-28T14:51:25;2.50;;;1.00;;
29814;SDS011;16708;50.426;7.664;2023-04-28T14:56:19;2.40;;;1.40;;
29814;SDS011;16708;50.426;7.664;2023-04-28T15:01:12;2.90;;;1.50;;
29814;SDS011;16708;50.426;7.664;2023-04-28T15:06:04;2.50;;;0.90;;
29814;SDS011;16708;50.426;7.664;2023-04-28T15:10:57;2.40;;;0.90;;
29814;SDS011;16708;50.426;7.664;2023-04-28T15:15:52;2.50;;;0.80;;
29814;SDS011;16708;50.426;7.664;2023-04-28T15:20:46;1.60;;;0.70;;
29814;SDS011;16708;50.426;7.664;2023-04-28T15:25:40;2.70;;;0.90;;
29814;SDS011;16708;50.426;7.664;2023-04-28T15:30:35;2.10;;;0.80;;
29814;SDS011;16708;50.426;7.664;2023-04-28T15:35:30;1.90;;;0.70;;
29814;SDS011;16708;50.426;7.664;2023-04-28T15:40:26;2.40;;;0.80;;
29814;SDS011;16708;50.426;7.664;2023-04-28T15:45:22;1.30;;;0.80;;
29814;SDS011;16708;50.426;7.664;2023-04-28T15:50:18;3.70;;;1.10;;
29814;SDS011;16708;50.426;7.664;2023-04-28T15:55:13;1.70;;;0.70;;
29814;SDS011;16708;50.426;7.664;2023-04-28T16:00:06;4.80;;;0.80;;
29814;SDS011;16708;50.426;7.664;2023-04-28T16:04:59;1.40;;;0.80;;
29814;SDS011;16708;50.426;7.664;2023-04-28T16:09:52;1.00;;;0.50;;
29814;SDS011;16708;50.426;7.664;2023-04-28T16:14:46;2.50;;;0.70;;
29814;SDS011;16708;50.426;7.664;2023-04-28T16:19:42;4.20;;;0.80;;
29814;SDS011;16708;50.426;7.664;2023-04-28T16:24:37;1.10;;;0.70;;
29814;SDS011;16708;50.426;7.664;2023-04-28T16:29:30;0.80;;;0.70;;
29814;SDS011;16708;50.426;7.664;2023-04-28T16:34:24;2.40;;;0.80;;
29814;SDS011;16708;50.426;7.664;2023-04-28T16:39:18;2.30;;;0.90;;
29814;SDS011;16708;50.426;7.664;2023-04-28T16:44:12;2.10;;;1.00;;
29814;SDS011;16708;50.426;7.664;2023-04-28T16:49:07;1.40;;;0.80;;
29814;SDS011;16708;50.426;7.664;2023-04-28T16:54:02;2.60;;;0.80;;
29814;SDS011;16708;50.426;7.664;2023-04-28T16:58:58;0.80;;;0.60;;
29814;SDS011;16708;50.426;7.664;2023-04-28T17:03:53;1.60;;;0.90;;
29814;SDS011;16708;50.426;7.664;2023-04-28T17:08:46;1.90;;;0.80;;
29814;SDS011;16708;50.426;7.664;2023-04-28T17:13:41;1.70;;;0.80;;
29814;SDS011;16708;50.426;7.664;2023-04-28T17:18:36;1.10;;;0.90;;
29814;SDS011;16708;50.426;7.664;2023-04-28T17:23:29;2.60;;;1.00;;
29814;SDS011;16708;50.426;7.664;2023-04-28T17:28:22;1.60;;;0.70;;
29814;SDS011;16708;50.426;7.664;2023-04-28T17:33:16;1.60;;;0.80;;
29814;SDS011;16708;50.426;7.664;2023-04-28T17:38:10;2.30;;;0.60;;
29814;SDS011;16708;50.426;7.664;2023-04-28T17:43:03;1.20;;;0.60;;
29814;SDS011;16708;50.426;7.664;2023-04-28T17:47:57;1.10;;;0.60;;
29814;SDS011;16708;50.426;7.664;2023-04-28T17:52:52;4.60;;;2.10;;
29814;SDS011;16708;50.426;7.664;2023-04-28T17:57:46;1.50;;;0.80;;
29814;SDS011;16708;50.426;7.664;2023-04-28T18:02:41;1.50;;;0.60;;
29814;SDS011;16708;50.426;7.664;2023-04-28T18:07:35;3.60;;;0.90;;
29814;SDS011;16708;50.426;7.664;2023-04-28T18:12:29;1.50;;;0.90;;
29814;SDS011;16708;50.426;7.664;2023-04-28T18:17:24;2.90;;;1.20;;
29814;SDS011;16708;50.426;7.664;2023-04-28T18:22:18;3.50;;;1.20;;
29814;SDS011;16708;50.426;7.664;2023-04-28T18:27:12;1.80;;;1.50;;
29814;SDS011;16708;50.426;7.664;2023-04-28T18:32:03;2.20;;;1.50;;
29814;SDS011;16708;50.426;7.664;2023-04-28T18:36:58;5.60;;;1.50;;
29814;SDS011;16708;50.426;7.664;2023-04-28T18:41:52;2.70;;;1.60;;
29814;SDS011;16708;50.426;7.664;2023-04-28T18:46:46;2.30;;;1.40;;
29814;SDS011;16708;50.426;7.664;2023-04-28T18:51:40;3.80;;;1.50;;
29814;SDS011;16708;50.426;7.664;2023-04-28T18:56:34;3.00;;;1.20;;
29814;SDS011;16708;50.426;7.664;2023-04-28T19:01:30;1.50;;;1.30;;
29814;SDS011;16708;50.426;7.664;2023-04-28T19:06:23;2.60;;;1.10;;
29814;SDS011;16708;50.426;7.664;2023-04-28T19:11:17;1.60;;;1.10;;
29814;SDS011;16708;50.426;7.664;2023-04-28T19:16:12;1.50;;;1.00;;
29814;SDS011;16708;50.426;7.664;2023-04-28T19:21:05;4.00;;;0.80;;
29814;SDS011;16708;50.426;7.664;2023-04-28T19:25:59;2.00;;;0.80;;
29814;SDS011;16708;50.426;7.664;2023-04-28T19:30:53;1.20;;;0.80;;
29814;SDS011;16708;50.426;7.664;2023-04-28T19:35:48;1.20;;;0.70;;
29814;SDS011;16708;50.426;7.664;2023-04-28T19:40:41;1.40;;;0.80;;
29814;SDS011;16708;50.426;7.664;2023-04-28T19:45:35;1.60;;;0.70;;
29814;SDS011;16708;50.426;7.664;2023-04-28T19:50:29;2.50;;;0.60;;
29814;SDS011;16708;50.426;7.664;2023-04-28T19:55:23;1.30;;;0.50;;
29814;SDS011;16708;50.426;7.664;2023-04-28T20:00:17;1.10;;;0.70;;
29814;SDS011;16708;50.426;7.664;2023-04-28T20:05:11;1.90;;;0.60;;
29814;SDS011;16708;50.426;7.664;2023-04-28T20:10:05;0.70;;;0.50;;
29814;SDS011;16708;50.426;7.664;2023-04-28T20:14:57;2.30;;;0.70;;
29814;SDS011;16708;50.426;7.664;2023-04-28T20:19:52;0.70;;;0.60;;
29814;SDS011;16708;50.426;7.664;2023-04-28T20:24:46;1.00;;;0.60;;
29814;SDS011;16708;50.426;7.664;2023-04-28T20:29:41;1.50;;;0.60;;
29814;SDS011;16708;50.426;7.664;2023-04-28T20:34:35;1.10;;;0.60;;
29814;SDS011;16708;50.426;7.664;2023-04-28T20:39:30;3.70;;;0.80;;
29814;SDS011;16708;50.426;7.664;2023-04-28T20:44:22;1.30;;;0.70;;
29814;SDS011;16708;50.426;7.664;2023-04-28T20:49:17;1.90;;;0.60;;
29814;SDS011;16708;50.426;7.664;2023-04-28T20:54:11;1.70;;;0.70;;
29814;SDS011;16708;50.426;7.664;2023-04-28T20:59:05;1.80;;;0.80;;
29814;SDS011;16708;50.426;7.664;2023-04-28T21:03:58;2.20;;;0.70;;
29814;SDS011;16708;50.426;7.664;2023-04-28T21:08:53;8.50;;;4.10;;
29814;SDS011;16708;50.426;7.664;2023-04-28T21:13:47;2.80;;;0.90;;
29814;SDS011;16708;50.426;7.664;2023-04-28T21:18:41;1.50;;;0.90;;
29814;SDS011;16708;50.426;7.664;2023-04-28T21:23:35;1.80;;;0.80;;
29814;SDS011;16708;50.426;7.664;2023-04-28T21:28:30;2.60;;;0.80;;
29814;SDS011;16708;50.426;7.664;2023-04-28T21:33:24;1.40;;;0.90;;
29814;SDS011;16708;50.426;7.664;2023-04-28T21:38:19;2.20;;;1.00;;
29814;SDS011;16708;50.426;7.664;2023-04-28T21:43:12;1.40;;;0.90;;
29814;SDS011;16708;50.426;7.664;2023-04-28T21:48:07;2.50;;;0.90;;
29814;SDS011;16708;50.426;7.664;2023-04-28T21:53:01;1.50;;;1.00;;
29814;SDS011;16708;50.426;7.664;2023-04-28T21:57:56;2.10;;;1.00;;
29814;SDS011;16708;50.426;7.664;2023-04-28T22:02:49;2.10;;;1.00;;
29814;SDS011;16708;50.426;7.664;2023-04-28T22:07:43;1.00;;;0.80;;
29814;SDS011;16708;50.426;7.664;2023-04-28T22:12:38;2.10;;;1.30;;
29814;SDS011;16708;50.426;7.664;2023-04-28T22:17:32;1.90;;;1.30;;
29814;SDS011;16708;50.426;7.664;2023-04-28T22:22:26;2.10;;;1.20;;
29814;SDS011;16708;50.426;7.664;2023-04-28T22:27:21;3.30;;;1.00;;
29814;SDS011;16708;50.426;7.664;2023-04-28T22:32:16;3.20;;;1.10;;
29814;SDS011;16708;50.426;7.664;2023-04-28T22:37:10;2.40;;;1.10;;
29814;SDS011;16708;50.426;7.664;2023-04-28T22:42:04;1.80;;;1.10;;
29814;SDS011;16708;50.426;7.664;2023-04-28T22:46:58;3.40;;;1.10;;
29814;SDS011;16708;50.426;7.664;2023-04-28T22:51:52;1.60;;;1.20;;
29814;SDS011;16708;50.426;7.664;2023-04-28T22:56:46;2.20;;;1.10;;
29814;SDS011;16708;50.426;7.664;2023-04-28T23:01:40;2.60;;;1.40;;
29814;SDS011;16708;50.426;7.664;2023-04-28T23:06:34;2.20;;;1.60;;
29814;SDS011;16708;50.426;7.664;2023-04-28T23:11:26;2.40;;;1.30;;
29814;SDS011;16708;50.426;7.664;2023-04-28T23:16:21;2.20;;;1.40;;
29814;SDS011;16708;50.426;7.664;2023-04-28T23:21:14;2.40;;;1.70;;
29814;SDS011;16708;50.426;7.664;2023-04-28T23:26:06;2.70;;;1.60;;
29814;SDS011;16708;50.426;7.664;2023-04-28T23:30:58;3.30;;;1.90;;
29814;SDS011;16708;50.426;7.664;2023-04-28T23:35:53;2.50;;;1.60;;
29814;SDS011;16708;50.426;7.664;2023-04-28T23:40:48;2.40;;;1.60;;
29814;SDS011;16708;50.426;7.664;2023-04-28T23:45:39;2.60;;;1.70;;
29814;SDS011;16708;50.426;7.664;2023-04-28T23:50:33;4.00;;;1.90;;
29814;SDS011;16708;50.426;7.664;2023-04-28T23:55:27;4.60;;;2.20;;
